Time;durP1;ratioP1;P1;durP2;ratioP2;P2;SDS_P1;SDS_P2;PMS_P1;PMS_P2;Temp;Humidity;BMP_temperature;BMP_pressure;BME280_temperature;BME280_humidity;BME280_pressure;Samples;Min_cycle;Max_cycle;Signal;HPM_P1;HPM_P2
2021/11/16 00:00:42;;;;;;;;;21.25;19.75;;;;;8.50;69.69;101674.38;5096918;27;63933;-61
2021/11/16 00:03:07;;;;;;;;;22.00;13.25;;;;;8.52;69.83;101672.50;5077944;27;45451;-61
2021/11/16 00:05:33;;;;;;;;;23.50;18.00;;;;;8.54;69.82;101675.84;5097519;27;46213;-61
2021/11/16 00:07:58;;;;;;;;;31.00;23.00;;;;;8.56;69.83;101676.59;5096804;27;63133;-61
2021/11/16 00:10:24;;;;;;;;;20.75;16.75;;;;;8.56;69.86;101668.75;5097522;27;45557;-62
2021/11/16 00:12:49;;;;;;;;;28.75;22.25;;;;;8.57;69.88;101665.19;5097703;27;45505;-61
2021/11/16 00:15:15;;;;;;;;;24.00;20.25;;;;;8.59;69.75;101667.69;5079137;27;46461;-61
2021/11/16 00:17:40;;;;;;;;;24.75;21.25;;;;;8.59;69.91;101668.56;5097340;27;45369;-62
2021/11/16 00:20:09;;;;;;;;;25.25;17.25;;;;;8.60;69.56;101661.53;5079448;27;45385;-62
2021/11/16 00:22:35;;;;;;;;;25.50;22.00;;;;;8.58;69.39;101663.41;5078964;27;45439;-61
2021/11/16 00:27:25;;;;;;;;;23.75;19.25;;;;;8.55;69.67;101655.72;5097297;27;45304;-61
2021/11/16 00:29:51;;;;;;;;;26.75;19.25;;;;;8.54;69.65;101649.66;5097253;27;45910;-61
2021/11/16 00:32:16;;;;;;;;;22.50;16.25;;;;;8.55;69.82;101650.50;5096524;27;65595;-61
2021/11/16 00:34:42;;;;;;;;;23.50;19.00;;;;;8.57;69.84;101648.63;5096397;27;65000;-61
2021/11/16 00:37:07;;;;;;;;;19.75;16.50;;;;;8.59;69.70;101646.75;5096544;27;55977;-60
2021/11/16 00:39:32;;;;;;;;;19.75;17.00;;;;;8.59;69.96;101644.97;5095932;27;59169;-61
2021/11/16 00:41:58;;;;;;;;;26.50;17.00;;;;;8.60;69.77;101640.56;5096285;27;61329;-61
2021/11/16 00:44:23;;;;;;;;;16.25;14.50;;;;;8.61;69.68;101644.88;5096150;27;67630;-61
2021/11/16 00:46:49;;;;;;;;;21.75;16.75;;;;;8.61;69.74;101627.38;5097044;27;45437;-62
2021/11/16 00:49:14;;;;;;;;;20.00;17.50;;;;;8.62;69.44;101628.22;5096325;27;60189;-61
2021/11/16 00:51:39;;;;;;;;;19.75;15.25;;;;;8.61;69.46;101631.78;5096016;27;65881;-61
2021/11/16 00:54:05;;;;;;;;;28.50;19.25;;;;;8.60;69.57;101627.47;5095585;27;45283;-62
2021/11/16 00:56:30;;;;;;;;;23.75;15.75;;;;;8.61;69.57;101630.00;5078446;27;45456;-61
2021/11/16 00:58:55;;;;;;;;;15.25;12.75;;;;;8.62;69.66;101620.34;5095892;27;66483;-61
2021/11/16 01:01:21;;;;;;;;;18.50;15.25;;;;;8.61;69.67;101626.53;5096132;27;61528;-61
2021/11/16 01:03:46;;;;;;;;;23.25;17.25;;;;;8.60;69.55;101612.59;5096586;27;45308;-61
2021/11/16 01:06:12;;;;;;;;;20.75;17.25;;;;;8.59;69.76;101620.53;5077473;27;71325;-61
2021/11/16 01:08:37;;;;;;;;;24.50;21.50;;;;;8.56;69.64;101621.59;5095753;27;66756;-61
2021/11/16 01:11:02;;;;;;;;;26.00;17.50;;;;;8.57;69.63;101609.31;5095858;27;62833;-61
2021/11/16 01:13:28;;;;;;;;;23.50;18.50;;;;;8.53;69.50;101603.44;5095968;27;65296;-61
2021/11/16 01:15:54;;;;;;;;;22.75;15.50;;;;;8.52;69.82;101603.53;5099840;27;45322;-61
2021/11/16 01:18:20;;;;;;;;;20.00;15.25;;;;;8.50;69.99;101610.63;5100257;27;45241;-61
2021/11/16 01:20:46;;;;;;;;;21.25;16.00;;;;;8.48;69.89;101602.88;5099152;27;45314;-61
2021/11/16 01:23:13;;;;;;;;;23.50;18.00;;;;;8.48;70.05;101602.03;5099480;27;56767;-61
2021/11/16 01:25:39;;;;;;;;;22.75;16.25;;;;;8.48;69.94;101596.81;5099971;27;46051;-60
2021/11/16 01:28:10;;;;;;;;;21.75;16.25;;;;;8.46;69.98;101599.50;5081877;27;45360;-61
2021/11/16 01:30:35;;;;;;;;;20.50;15.50;;;;;8.44;69.92;101591.75;5100106;27;45369;-61
2021/11/16 01:33:27;;;;;;;;;25.75;17.25;;;;;8.42;70.04;101601.47;5099867;27;45397;-61
2021/11/16 01:35:47;;;;;;;;;20.50;14.50;;;;;8.41;70.08;101601.56;5098206;27;45792;-61
2021/11/16 01:38:13;;;;;;;;;22.75;15.75;;;;;8.41;70.04;101607.66;5099828;27;45309;-61
2021/11/16 01:40:39;;;;;;;;;26.50;17.75;;;;;8.39;70.02;101603.44;5081745;27;45435;-61
2021/11/16 01:43:08;;;;;;;;;27.00;17.00;;;;;8.37;70.21;101602.69;5099802;27;46180;-62
2021/11/16 01:45:33;;;;;;;;;16.50;12.00;;;;;8.36;70.00;101601.84;5099014;27;45660;-61
2021/11/16 01:47:59;;;;;;;;;20.00;13.25;;;;;8.37;70.22;101607.91;5100072;27;45384;-61
2021/11/16 01:50:24;;;;;;;;;19.50;15.00;;;;;8.36;70.11;101606.25;5099131;27;61198;-61
2021/11/16 01:52:50;;;;;;;;;18.25;15.50;;;;;8.37;70.03;101616.63;5099647;27;45497;-61
2021/11/16 01:55:17;;;;;;;;;17.75;14.50;;;;;8.35;70.18;101613.25;5098364;27;45581;-61
2021/11/16 01:57:43;;;;;;;;;16.00;13.50;;;;;8.36;70.17;101607.09;5099530;27;45334;-61
2021/11/16 02:00:11;;;;;;;;;20.75;17.50;;;;;8.35;70.13;101600.16;5099122;27;56617;-61
2021/11/16 02:02:36;;;;;;;;;22.75;18.25;;;;;8.34;70.23;101600.25;5099299;27;45519;-62
2021/11/16 02:05:02;;;;;;;;;23.00;15.25;;;;;8.32;70.35;101605.59;5099447;27;45340;-61
2021/11/16 02:07:27;;;;;;;;;22.25;18.25;;;;;8.30;70.34;101604.84;5099570;27;45191;-61
2021/11/16 02:09:53;;;;;;;;;21.00;16.00;;;;;8.25;70.64;101597.25;5098800;27;60377;-61
2021/11/16 02:12:18;;;;;;;;;21.50;16.00;;;;;8.25;70.65;101601.66;5098501;27;65083;-61
2021/11/16 02:14:44;;;;;;;;;24.00;17.50;;;;;8.24;70.52;101600.00;5099477;27;45421;-61
2021/11/16 02:17:09;;;;;;;;;21.25;15.75;;;;;8.21;70.74;101593.19;5098516;27;65559;-62
2021/11/16 02:19:34;;;;;;;;;21.50;16.75;;;;;8.20;70.80;101598.50;5098459;27;60985;-62
2021/11/16 02:22:00;;;;;;;;;22.50;19.00;;;;;8.20;70.86;101598.50;5080061;27;66815;-61
2021/11/16 02:24:25;;;;;;;;;22.50;16.50;;;;;8.19;70.88;101597.66;5080745;27;45307;-61
2021/11/16 02:26:50;;;;;;;;;27.25;18.50;;;;;8.19;70.89;101592.44;5079428;27;57731;-61
2021/11/16 02:29:16;;;;;;;;;22.25;14.00;;;;;8.20;70.98;101593.25;5098697;27;62034;-61
2021/11/16 02:31:44;;;;;;;;;24.50;17.00;;;;;8.19;71.13;101595.06;5080568;27;46323;-61
2021/11/16 02:34:09;;;;;;;;;19.75;14.50;;;;;8.21;71.12;101584.47;5099059;27;45450;-60
2021/11/16 02:36:36;;;;;;;;;23.50;17.50;;;;;8.23;71.17;101586.03;5099024;27;45393;-61
2021/11/16 02:39:02;;;;;;;;;21.25;15.75;;;;;8.25;71.11;101589.41;5098760;27;45381;-62
2021/11/16 02:41:31;;;;;;;;;19.75;14.50;;;;;8.26;71.09;101591.09;5098721;27;45385;-60
2021/11/16 02:44:00;;;;;;;;;22.00;16.00;;;;;8.26;71.02;101587.66;5098753;27;45930;-62
2021/11/16 02:46:27;;;;;;;;;27.50;19.75;;;;;8.25;71.18;101591.19;5080899;27;45249;-61
2021/11/16 02:48:52;;;;;;;;;16.50;15.25;;;;;8.24;71.08;101595.59;5098864;27;45266;-60
2021/11/16 02:51:18;;;;;;;;;23.25;16.00;;;;;8.26;70.89;101592.88;5098751;27;45472;-61
2021/11/16 02:53:43;;;;;;;;;25.50;18.00;;;;;8.25;71.07;101588.59;5098728;27;47599;-61
2021/11/16 02:56:09;;;;;;;;;21.00;14.50;;;;;8.24;71.04;101584.28;5097049;27;57891;-62
2021/11/16 02:58:34;;;;;;;;;20.75;14.50;;;;;8.25;71.13;101589.41;5097548;27;45277;-61
2021/11/16 03:01:04;;;;;;;;;17.25;16.00;;;;;8.25;71.12;101591.19;5080111;27;46639;-61
2021/11/16 03:03:30;;;;;;;;;21.25;14.00;;;;;8.27;71.20;101595.38;5098590;27;45228;-62
2021/11/16 03:05:56;;;;;;;;;18.75;13.75;;;;;8.29;71.01;101587.47;5098670;27;45428;-62
2021/11/16 03:08:24;;;;;;;;;18.75;17.00;;;;;8.30;70.89;101594.38;5097586;27;45601;-61
2021/11/16 03:10:57;;;;;;;;;20.25;15.50;;;;;8.27;71.01;101584.91;5098572;27;45492;-61
2021/11/16 03:13:23;;;;;;;;;18.50;17.00;;;;;8.27;70.94;101581.47;5098349;27;45230;-61
2021/11/16 03:15:49;;;;;;;;;16.00;10.75;;;;;8.25;70.79;101585.97;5098727;27;45300;-61
2021/11/16 03:18:15;;;;;;;;;23.25;16.75;;;;;8.23;71.06;101582.59;5098365;27;45607;-61
2021/11/16 03:20:42;;;;;;;;;20.25;15.00;;;;;8.21;70.88;101582.72;5080024;27;46630;-62
2021/11/16 03:23:40;;;;;;;;;21.00;15.50;;;;;8.20;70.78;101582.78;5098229;27;45872;-61
2021/11/16 03:26:01;;;;;;;;;15.25;15.00;;;;;8.16;71.00;101575.13;5094279;27;45590;-61
2021/11/16 03:28:29;;;;;;;;;21.25;16.25;;;;;8.14;70.97;101579.59;5097063;27;45265;-61
2021/11/16 03:30:58;;;;;;;;;21.75;14.75;;;;;8.15;70.97;101585.69;5098096;27;45307;-61
2021/11/16 03:33:24;;;;;;;;;22.00;14.00;;;;;8.15;70.98;101580.47;5098084;27;45376;-62
2021/11/16 03:35:49;;;;;;;;;20.00;14.00;;;;;8.16;71.26;101577.75;5079429;27;58781;-62
2021/11/16 03:38:16;;;;;;;;;20.50;15.00;;;;;8.19;71.25;101581.09;5097742;27;45412;-61
2021/11/16 03:40:42;;;;;;;;;20.00;15.25;;;;;8.19;71.21;101575.88;5097906;27;45440;-61
2021/11/16 03:43:11;;;;;;;;;22.25;15.25;;;;;8.19;71.34;101571.50;5096895;27;45425;-62
2021/11/16 03:45:36;;;;;;;;;16.75;13.00;;;;;8.21;71.27;101576.63;5080186;27;45252;-61
2021/11/16 03:48:02;;;;;;;;;18.50;16.25;;;;;8.22;71.47;101581.75;5097824;27;45432;-61
2021/11/16 03:50:28;;;;;;;;;23.75;15.00;;;;;8.22;71.04;101580.91;5097751;27;46551;-61
2021/11/16 03:52:57;;;;;;;;;16.75;13.50;;;;;8.22;71.16;101581.75;5097822;27;45252;-62
2021/11/16 03:55:28;;;;;;;;;16.75;13.75;;;;;8.23;70.94;101580.81;5096594;27;45488;-61
2021/11/16 03:57:57;;;;;;;;;24.50;14.25;;;;;8.23;71.05;101580.81;5096559;27;45312;-61
2021/11/16 04:00:31;;;;;;;;;17.50;13.00;;;;;8.23;70.73;101578.19;5097721;27;45642;-61
2021/11/16 04:02:56;;;;;;;;;18.25;15.00;;;;;8.21;70.91;101579.22;5097592;27;45777;-61
2021/11/16 04:05:24;;;;;;;;;16.75;14.25;;;;;8.20;70.95;101577.53;5097784;27;45467;-62
2021/11/16 04:07:50;;;;;;;;;20.00;17.00;;;;;8.19;71.15;101586.34;5097715;27;45297;-61
2021/11/16 04:10:15;;;;;;;;;22.50;17.50;;;;;8.19;70.99;101581.09;5097488;27;45323;-61
2021/11/16 04:12:41;;;;;;;;;24.75;15.50;;;;;8.17;70.96;101581.22;5097381;27;45453;-61
2021/11/16 04:15:07;;;;;;;;;21.00;17.25;;;;;8.15;70.63;101580.47;5097666;27;45361;-61
2021/11/16 04:17:33;;;;;;;;;15.50;12.00;;;;;8.13;70.66;101580.53;5096123;27;45362;-61
2021/11/16 04:20:00;;;;;;;;;19.50;15.00;;;;;8.13;70.55;101582.34;5096332;27;45340;-61
2021/11/16 04:22:26;;;;;;;;;16.50;14.50;;;;;8.11;70.57;101584.19;5096128;27;45897;-61
2021/11/16 04:24:51;;;;;;;;;11.00;11.00;;;;;8.11;70.55;101581.59;5097172;27;45439;-62
2021/11/16 04:27:17;;;;;;;;;13.75;11.50;;;;;8.09;70.63;101583.44;5096404;27;66275;-61
2021/11/16 04:29:42;;;;;;;;;16.00;14.00;;;;;8.09;70.59;101580.84;5097102;27;46150;-61
2021/11/16 04:32:08;;;;;;;;;20.00;12.50;;;;;8.08;70.54;101579.97;5096992;27;45276;-61
2021/11/16 04:34:34;;;;;;;;;20.25;13.75;;;;;8.07;70.47;101578.28;5096420;27;68774;-62
2021/11/16 04:36:59;;;;;;;;;16.50;12.50;;;;;8.09;70.56;101586.06;5097469;27;45253;-61
2021/11/16 04:39:24;;;;;;;;;16.75;12.25;;;;;8.06;70.53;101581.84;5096666;27;58431;-62
2021/11/16 04:41:50;;;;;;;;;20.75;11.50;;;;;8.08;70.50;101582.59;5096305;27;62768;-61
2021/11/16 04:44:17;;;;;;;;;18.75;14.00;;;;;8.08;70.62;101585.22;5096374;27;62897;-62
2021/11/16 04:46:43;;;;;;;;;16.25;12.00;;;;;8.09;70.55;101583.44;5097107;27;45708;-61
2021/11/16 04:49:16;;;;;;;;;19.75;13.50;;;;;8.11;70.44;101582.41;5093552;27;45469;-60
2021/11/16 04:51:50;;;;;;;;;19.00;14.00;;;;;8.13;70.33;101583.16;5096033;27;45344;-62
2021/11/16 04:54:51;;;;;;;;;20.50;13.50;;;;;8.16;70.18;101590.00;5097088;27;45280;-61
2021/11/16 05:05:04;;;;;;;;;18.75;13.00;;;;;8.19;70.40;101591.56;5096953;27;45290;-61
2021/11/16 05:07:32;;;;;;;;;16.25;12.75;;;;;8.20;70.35;101593.25;5096856;27;45204;-61
2021/11/16 05:09:58;;;;;;;;;16.00;16.00;;;;;8.21;70.52;101592.31;5096684;27;46595;-61
2021/11/16 05:12:26;;;;;;;;;17.50;13.75;;;;;8.20;70.66;101599.34;5078508;27;45296;-61
2021/11/16 05:14:51;;;;;;;;;29.75;17.00;;;;;8.21;70.48;101594.94;5078586;27;45382;-61
2021/11/16 05:17:17;;;;;;;;;23.25;17.25;;;;;8.21;70.41;101593.19;5096590;27;45236;-61
2021/11/16 05:19:42;;;;;;;;;20.50;17.00;;;;;8.22;70.34;101575.69;5096125;27;61092;-62
2021/11/16 05:22:08;;;;;;;;;22.00;18.00;;;;;8.23;70.67;101579.97;5096592;27;45418;-61
2021/11/16 05:24:33;;;;;;;;;23.25;15.25;;;;;8.20;70.37;101580.16;5095772;27;58843;-61
2021/11/16 05:26:58;;;;;;;;;16.75;13.50;;;;;8.20;70.74;101583.66;5096671;27;45524;-61
2021/11/16 05:29:24;;;;;;;;;17.75;15.75;;;;;8.21;70.75;101581.84;5095567;27;69425;-61
2021/11/16 05:31:49;;;;;;;;;14.75;13.50;;;;;8.20;70.78;101596.72;5095760;27;61368;-61
2021/11/16 05:34:15;;;;;;;;;24.75;16.25;;;;;8.23;70.63;101595.69;5095918;27;60902;-62
2021/11/16 05:36:40;;;;;;;;;15.00;14.00;;;;;8.22;70.72;101591.38;5096471;27;45647;-61
2021/11/16 05:39:06;;;;;;;;;18.50;13.50;;;;;8.19;70.65;101595.06;5096114;27;45974;-61
2021/11/16 05:41:31;;;;;;;;;19.25;14.75;;;;;8.19;70.83;101596.81;5095493;27;66553;-61
2021/11/16 05:43:58;;;;;;;;;21.25;17.25;;;;;8.17;70.87;101595.13;5096287;27;45350;-61
2021/11/16 05:46:24;;;;;;;;;21.25;17.25;;;;;8.19;70.99;101600.28;5096324;27;45212;-61
2021/11/16 05:48:50;;;;;;;;;26.25;19.75;;;;;8.20;71.09;101598.50;5096203;27;46993;-61
2021/11/16 05:51:16;;;;;;;;;21.75;15.75;;;;;8.20;70.94;101601.97;5096214;27;45284;-61
2021/11/16 05:53:45;;;;;;;;;22.25;16.75;;;;;8.21;70.70;101598.41;5096479;27;45309;-61
2021/11/16 05:56:11;;;;;;;;;24.75;17.00;;;;;8.19;70.79;101597.66;5096134;27;45239;-61
2021/11/16 05:58:39;;;;;;;;;20.00;19.00;;;;;8.17;70.90;101591.69;5095827;27;47656;-61
2021/11/16 06:01:05;;;;;;;;;21.75;18.75;;;;;8.19;70.73;101597.66;5096471;27;46062;-61
2021/11/16 06:03:31;;;;;;;;;31.00;16.75;;;;;8.19;70.81;101605.53;5099552;27;45432;-61
2021/11/16 06:05:56;;;;;;;;;31.50;19.25;;;;;8.19;70.62;101600.28;5099560;27;45552;-61
2021/11/16 06:08:25;;;;;;;;;26.25;18.50;;;;;8.17;70.57;101602.97;5098577;27;69547;-61
2021/11/16 06:10:50;;;;;;;;;25.00;19.25;;;;;8.19;70.51;101602.03;5098531;27;45842;-60
2021/11/16 06:13:15;;;;;;;;;26.75;21.50;;;;;8.19;70.62;101607.28;5063595;27;45344;-61
2021/11/16 06:15:41;;;;;;;;;23.75;18.50;;;;;8.17;70.63;101610.84;5099373;27;45243;-61
2021/11/16 06:18:06;;;;;;;;;29.25;21.00;;;;;8.17;70.76;101607.41;5099055;27;45465;-60
2021/11/16 06:20:32;;;;;;;;;36.00;23.50;;;;;8.16;70.69;101608.31;5099043;27;45231;-61
2021/11/16 06:22:57;;;;;;;;;27.00;19.75;;;;;8.17;70.79;101610.84;5081041;27;45835;-61
2021/11/16 06:25:23;;;;;;;;;23.25;20.00;;;;;8.17;70.78;101602.16;5099003;27;45211;-62
2021/11/16 06:27:48;;;;;;;;;32.25;21.75;;;;;8.19;70.68;101612.53;5096697;27;72127;-61
2021/11/16 06:30:14;;;;;;;;;26.00;18.75;;;;;8.16;70.54;101613.56;5098250;27;67092;-62
2021/11/16 06:32:39;;;;;;;;;34.50;25.50;;;;;8.16;70.64;101614.38;5099000;27;45483;-61
2021/11/16 06:35:05;;;;;;;;;32.25;25.50;;;;;8.16;70.84;101613.56;5098454;27;45135;-61
2021/11/16 06:37:30;;;;;;;;;29.75;21.75;;;;;8.15;70.87;101614.50;5098551;27;46072;-61
2021/11/16 06:39:56;;;;;;;;;35.00;29.00;;;;;8.14;70.78;101618.88;5079420;27;45364;-61
2021/11/16 06:42:21;;;;;;;;;30.25;23.50;;;;;8.14;70.74;101621.50;5098765;27;45942;-62
2021/11/16 06:44:48;;;;;;;;;29.50;23.00;;;;;8.16;70.79;101614.38;5098818;27;45314;-61
2021/11/16 06:47:13;;;;;;;;;28.75;21.00;;;;;8.15;70.72;101619.72;5098576;27;45657;-62
2021/11/16 06:49:41;;;;;;;;;32.75;21.50;;;;;8.13;70.77;101617.19;5098468;27;45367;-61
2021/11/16 06:52:06;;;;;;;;;37.00;27.00;;;;;8.13;70.86;101617.19;5098586;27;45390;-61
2021/11/16 06:54:32;;;;;;;;;28.00;24.25;;;;;8.11;70.80;101621.69;5098524;27;45580;-61
2021/11/16 06:56:58;;;;;;;;;28.50;20.00;;;;;8.12;70.70;101617.31;5098528;27;46246;-62
2021/11/16 06:59:24;;;;;;;;;32.00;20.75;;;;;8.12;70.83;101615.50;5098430;27;45355;-61
2021/11/16 07:01:50;;;;;;;;;25.50;21.00;;;;;8.13;70.92;101619.81;5098657;27;45255;-61
2021/11/16 07:04:15;;;;;;;;;31.50;21.50;;;;;8.15;70.69;101617.13;5098568;27;45462;-62
2021/11/16 07:06:43;;;;;;;;;26.75;21.25;;;;;8.15;70.89;101617.94;5098384;27;46208;-61
2021/11/16 07:09:10;;;;;;;;;28.50;19.25;;;;;8.15;70.84;101615.31;5098319;27;45864;-61
2021/11/16 07:11:55;;;;;;;;;28.50;20.75;;;;;8.15;70.91;101617.94;5096759;27;45231;-61
2021/11/16 07:14:26;;;;;;;;;21.75;19.25;;;;;8.14;70.94;101613.63;5098232;27;45554;-61
2021/11/16 07:16:54;;;;;;;;;32.25;26.25;;;;;8.16;70.81;101618.78;5098093;27;45453;-61
2021/11/16 07:19:31;;;;;;;;;45.25;27.00;;;;;8.16;70.62;101619.63;5097865;27;45947;-61
2021/11/16 07:21:57;;;;;;;;;40.25;30.75;;;;;8.15;70.57;101617.13;5096752;27;45278;-61
2021/11/16 07:24:26;;;;;;;;;24.00;21.25;;;;;8.14;70.81;101618.06;5097684;27;45673;-62
2021/11/16 07:26:59;;;;;;;;;30.25;21.75;;;;;8.14;70.83;101616.25;5097673;27;46120;-61
2021/11/16 07:29:48;;;;;;;;;31.75;26.75;;;;;8.14;70.82;101612.81;5097657;27;45865;-61
2021/11/16 07:32:16;;;;;;;;;33.00;27.75;;;;;8.12;71.10;101612.88;5090043;27;45360;-61
2021/11/16 07:34:43;;;;;;;;;35.25;27.75;;;;;8.11;71.02;101621.69;5079640;27;45325;-61
2021/11/16 07:37:14;;;;;;;;;38.75;28.50;;;;;8.11;70.99;101616.44;5096403;27;46202;-61
2021/11/16 07:40:09;;;;;;;;;30.25;23.25;;;;;8.12;70.92;101617.31;5096947;27;45306;-61
2021/11/16 07:42:59;;;;;;;;;30.00;24.00;;;;;8.13;71.16;101618.97;5060386;27;45295;-61
2021/11/16 07:45:37;;;;;;;;;32.75;25.75;;;;;8.13;71.09;101621.59;5079892;27;45386;-61
2021/11/16 07:48:05;;;;;;;;;30.25;26.50;;;;;8.14;71.05;101628.53;5097499;27;46131;-61
2021/11/16 07:50:31;;;;;;;;;37.00;25.00;;;;;8.16;70.69;101621.41;5097458;27;45855;-61
2021/11/16 07:53:21;;;;;;;;;30.67;22.67;;;;;8.17;71.03;101631.78;5097892;27;45316;-61
2021/11/16 07:55:52;;;;;;;;;57.75;42.50;;;;;8.16;70.65;101630.09;5079174;27;45423;-61
2021/11/16 07:58:18;;;;;;;;;44.75;35.75;;;;;8.17;70.58;101630.94;5097383;27;46386;-61
2021/11/16 08:00:47;;;;;;;;;43.00;33.25;;;;;8.16;70.72;101624.84;5096249;27;45289;-61
2021/11/16 08:03:15;;;;;;;;;38.50;29.00;;;;;8.17;70.84;101628.34;5095576;27;45338;-62
2021/11/16 08:05:47;;;;;;;;;33.00;23.00;;;;;8.19;70.91;101629.09;5097567;27;45208;-61
2021/11/16 08:08:56;;;;;;;;;32.75;23.00;;;;;8.20;71.02;101629.91;5096253;27;45441;-61
2021/11/16 08:14:00;;;;;;;;;30.00;25.75;;;;;8.21;71.08;101634.22;5097373;27;45432;-61
2021/11/16 08:16:28;;;;;;;;;40.50;29.25;;;;;8.21;70.96;101635.06;5097160;27;45356;-62
2021/11/16 08:19:06;;;;;;;;;33.00;28.25;;;;;8.22;70.93;101641.97;5078001;27;68109;-60
2021/11/16 08:21:32;;;;;;;;;46.00;34.25;;;;;8.22;71.09;101631.47;5078575;27;45886;-61
2021/11/16 08:24:06;;;;;;;;;50.75;35.00;;;;;8.22;71.00;101628.88;5077688;27;45348;-60
2021/11/16 08:26:42;;;;;;;;;48.25;35.50;;;;;8.26;70.69;101625.13;5096110;27;45286;-61
2021/11/16 08:29:09;;;;;;;;;44.25;33.25;;;;;8.25;70.82;101626.06;5097064;27;45430;-60
2021/11/16 08:31:42;;;;;;;;;39.50;32.75;;;;;8.26;70.88;101614.66;5078742;27;45418;-61
2021/11/16 08:34:08;;;;;;;;;34.75;26.25;;;;;8.29;70.74;101622.31;5097290;27;45343;-61
2021/11/16 08:36:47;;;;;;;;;27.50;23.75;;;;;8.31;70.67;101623.06;5095113;27;45355;-61
2021/11/16 08:39:12;;;;;;;;;42.00;30.25;;;;;8.34;70.78;101618.59;5077816;27;45800;-61
2021/11/16 08:41:38;;;;;;;;;34.75;28.25;;;;;8.37;70.49;101623.63;5078844;27;45519;-61
2021/11/16 08:44:10;;;;;;;;;40.50;31.00;;;;;8.37;70.45;101621.88;5077022;27;45470;-61
2021/11/16 08:46:36;;;;;;;;;33.75;25.25;;;;;8.37;70.29;101621.88;5076469;27;45362;-61
2021/11/16 08:49:01;;;;;;;;;26.75;23.00;;;;;8.39;70.21;101619.16;5075081;27;45401;-61
2021/11/16 08:51:30;;;;;;;;;34.00;25.00;;;;;8.37;70.25;101613.16;5078580;27;69849;-61
2021/11/16 08:53:56;;;;;;;;;32.00;26.00;;;;;8.38;70.50;101617.47;5076188;27;45694;-61
2021/11/16 08:56:26;;;;;;;;;39.50;29.25;;;;;8.37;70.51;101624.50;5048767;27;45502;-60
2021/11/16 08:58:52;;;;;;;;;39.25;27.25;;;;;8.39;70.57;101627.00;5078380;27;46659;-61
2021/11/16 09:01:17;;;;;;;;;28.50;23.25;;;;;8.39;70.71;101613.91;5076707;27;64241;-61
2021/11/16 09:03:44;;;;;;;;;34.25;27.00;;;;;8.43;70.59;101618.88;5080339;27;45476;-61
2021/11/16 09:06:19;;;;;;;;;35.50;23.25;;;;;8.46;70.56;101618.69;5076269;27;45537;-60
2021/11/16 09:08:46;;;;;;;;;25.00;16.25;;;;;8.51;70.58;101617.56;5079459;27;45653;-61
2021/11/16 09:11:16;;;;;;;;;27.75;20.00;;;;;8.52;70.80;101601.75;5066783;27;45495;-61
2021/11/16 09:13:43;;;;;;;;;30.00;25.00;;;;;8.57;70.43;101596.22;5076539;27;45378;-61
2021/11/16 09:16:16;;;;;;;;;25.00;19.75;;;;;8.61;69.97;101582.00;5076057;27;45517;-61
2021/11/16 09:18:43;;;;;;;;;26.25;19.25;;;;;8.66;70.07;101576.47;5078112;27;47656;-61
2021/11/16 09:21:15;;;;;;;;;25.25;24.00;;;;;8.69;69.86;101578.91;5057961;27;45483;-61
2021/11/16 09:23:47;;;;;;;;;26.75;21.75;;;;;8.71;69.55;101575.25;5074899;27;45347;-62
2021/11/16 09:29:00;;;;;;;;;32.25;21.00;;;;;8.73;68.75;101575.16;5052010;27;46122;-61
2021/11/16 09:31:40;;;;;;;;;28.50;19.75;;;;;8.73;68.46;101572.53;5074229;27;46056;-62
2021/11/16 09:34:07;;;;;;;;;25.75;20.75;;;;;8.71;68.58;101570.00;5059656;27;45503;-61
2021/11/16 09:36:37;;;;;;;;;23.75;22.00;;;;;8.69;68.22;101569.25;5057994;27;45631;-61
2021/11/16 09:39:16;;;;;;;;;25.50;22.00;;;;;8.69;68.52;101574.50;5076894;27;45410;-61
2021/11/16 09:41:45;;;;;;;;;32.50;20.25;;;;;8.70;68.26;101570.94;5063251;27;45775;-61
2021/11/16 09:44:21;;;;;;;;;24.75;20.00;;;;;8.71;68.51;101567.38;5080739;27;45492;-61
2021/11/16 09:46:52;;;;;;;;;27.00;19.00;;;;;8.75;68.54;101573.25;5060859;27;46480;-61
2021/11/16 09:49:24;;;;;;;;;26.50;20.75;;;;;8.78;68.30;101573.06;5078142;27;46253;-61
2021/11/16 09:52:01;;;;;;;;;23.75;19.50;;;;;8.80;67.78;101578.22;5048292;27;45707;-62
2021/11/16 09:54:27;;;;;;;;;21.75;17.50;;;;;8.83;67.74;101585.88;5079902;27;45432;-61
2021/11/16 09:57:09;;;;;;;;;23.25;18.75;;;;;8.85;67.47;101586.63;5077082;27;45227;-61
2021/11/16 09:59:37;;;;;;;;;32.00;24.75;;;;;8.87;67.44;101592.59;5079722;27;46289;-61
2021/11/16 10:02:04;;;;;;;;;24.00;20.50;;;;;8.89;67.47;101588.94;5082676;27;45458;-61
2021/11/16 10:04:34;;;;;;;;;22.25;15.75;;;;;8.90;67.11;101588.00;5080185;27;45498;-61
2021/11/16 10:06:59;;;;;;;;;22.50;20.50;;;;;8.93;67.00;101586.13;5076292;27;45667;-60
2021/11/16 10:09:25;;;;;;;;;25.75;20.50;;;;;8.93;66.50;101586.97;5053264;27;72908;-61
2021/11/16 10:11:51;;;;;;;;;18.75;16.00;;;;;8.94;66.43;101578.16;5077142;27;65619;-61
2021/11/16 10:14:19;;;;;;;;;23.50;19.00;;;;;8.94;66.29;101583.41;5078095;27;45565;-61
2021/11/16 10:16:45;;;;;;;;;25.50;19.50;;;;;8.96;66.29;101578.91;5077271;27;45605;-61
2021/11/16 10:19:11;;;;;;;;;29.25;18.50;;;;;8.97;66.63;101577.97;5078864;27;46231;-61
2021/11/16 10:21:36;;;;;;;;;21.50;16.50;;;;;9.00;66.05;101582.16;5077623;27;45405;-61
2021/11/16 10:24:01;;;;;;;;;26.50;17.75;;;;;9.03;66.25;101588.03;5055076;28;57712;-62
2021/11/16 10:26:32;;;;;;;;;19.25;15.50;;;;;9.04;65.71;101583.66;5056370;28;45645;-61
2021/11/16 10:28:57;;;;;;;;;20.00;17.25;;;;;9.03;65.76;101581.97;5060077;28;45510;-61
2021/11/16 10:31:32;;;;;;;;;28.25;15.50;;;;;9.04;66.14;101583.66;5056383;28;45450;-61
2021/11/16 10:33:58;;;;;;;;;19.75;15.00;;;;;9.04;65.72;101583.66;5062054;28;45484;-61
2021/11/16 10:36:23;;;;;;;;;21.00;15.75;;;;;9.03;65.87;101585.41;5058798;28;45635;-61
2021/11/16 10:38:52;;;;;;;;;22.50;18.50;;;;;9.02;65.96;101586.34;5057371;28;46092;-61
2021/11/16 10:41:19;;;;;;;;;16.25;15.50;;;;;9.02;65.80;101591.59;5056266;28;46005;-62
2021/11/16 10:43:50;;;;;;;;;20.25;17.25;;;;;9.03;65.97;101588.03;5054549;28;45507;-61
2021/11/16 10:46:19;;;;;;;;;17.00;15.50;;;;;9.04;66.14;101583.66;5056160;28;45552;-61
2021/11/16 10:48:45;;;;;;;;;21.50;18.25;;;;;9.04;66.21;101576.59;5057952;28;45750;-61
2021/11/16 10:51:12;;;;;;;;;27.25;21.00;;;;;9.06;66.25;101577.34;5058377;28;45544;-61
2021/11/16 10:53:38;;;;;;;;;22.75;18.75;;;;;9.09;66.04;101576.31;5058757;28;45500;-61
2021/11/16 10:56:05;;;;;;;;;25.00;20.50;;;;;9.12;66.27;101577.88;5057518;28;45656;-62
2021/11/16 10:58:40;;;;;;;;;29.50;19.25;;;;;9.14;66.27;101573.38;5060578;28;46455;-62
2021/11/16 11:01:09;;;;;;;;;22.50;18.75;;;;;9.14;65.97;101570.75;5055639;28;46055;-61
2021/11/16 11:03:36;;;;;;;;;21.25;17.00;;;;;9.17;66.07;101563.56;5056026;28;45276;-61
2021/11/16 11:06:09;;;;;;;;;22.75;16.50;;;;;9.17;65.44;101563.56;5056961;28;45364;-61
2021/11/16 11:08:39;;;;;;;;;22.50;16.50;;;;;9.17;65.60;101567.94;5046691;28;46513;-61
2021/11/16 11:11:08;;;;;;;;;21.75;16.00;;;;;9.16;65.17;101564.50;5062686;28;45980;-61
2021/11/16 11:13:33;;;;;;;;;20.50;18.00;;;;;9.16;65.24;101559.25;5062209;28;45462;-61
2021/11/16 11:15:58;;;;;;;;;25.50;16.50;;;;;9.19;64.97;101555.56;5040325;28;45499;-62
2021/11/16 11:18:45;;;;;;;;;21.50;17.75;;;;;9.21;65.07;101556.31;5057832;28;55389;-62
2021/11/16 11:21:29;;;;;;;;;24.25;18.00;;;;;9.22;65.33;101554.53;5051859;28;45441;-61
2021/11/16 11:23:59;;;;;;;;;18.00;16.25;;;;;9.26;64.98;101556.84;5069181;27;45416;-61
2021/11/16 11:29:26;;;;;;;;;19.00;17.00;;;;;9.26;64.55;101546.34;5076302;27;45924;-61
2021/11/16 11:32:14;;;;;;;;;18.75;15.25;;;;;9.28;64.41;101547.09;5079982;27;45944;-62
2021/11/16 11:34:45;;;;;;;;;22.25;15.00;;;;;9.28;64.60;101546.22;5077929;27;45289;-61
2021/11/16 11:37:17;;;;;;;;;23.00;18.00;;;;;9.25;64.57;101539.44;5079986;27;46487;-61
2021/11/16 11:39:53;;;;;;;;;18.75;16.25;;;;;9.22;64.62;101538.81;5075209;27;46240;-61